sensor_id;sensor_type;location;lat;lon;timestamp;pressure;altitude;pressure_sealevel;temperature;humidity
15670;BME280;18524;45.190;5.732;2022-12-11T00:00:39;98392.13;;;3.11;81.97
15670;BME280;18524;45.190;5.732;2022-12-11T00:05:30;98396.97;;;3.03;82.72
15670;BME280;18524;45.190;5.732;2022-12-11T00:10:21;98389.94;;;3.05;83.45
15670;BME280;18524;45.190;5.732;2022-12-11T00:15:11;98387.53;;;3.02;82.43
15670;BME280;18524;45.190;5.732;2022-12-11T00:20:02;98395.16;;;3.18;82.53
15670;BME280;18524;45.190;5.732;2022-12-11T00:24:53;98402.13;;;3.03;82.70
15670;BME280;18524;45.190;5.732;2022-12-11T00:29:44;98408.16;;;3.03;83.76
15670;BME280;18524;45.190;5.732;2022-12-11T00:34:34;98409.63;;;3.07;82.45
15670;BME280;18524;45.190;5.732;2022-12-11T00:39:25;98413.97;;;3.07;82.28
15670;BME280;18524;45.190;5.732;2022-12-11T00:44:15;98430.53;;;3.04;82.94
15670;BME280;18524;45.190;5.732;2022-12-11T00:49:06;98425.63;;;2.86;83.21
15670;BME280;18524;45.190;5.732;2022-12-11T00:53:56;98432.00;;;2.94;83.89
15670;BME280;18524;45.190;5.732;2022-12-11T00:58:48;98429.69;;;3.04;82.27
15670;BME280;18524;45.190;5.732;2022-12-11T01:03:38;98434.97;;;3.02;82.33
15670;BME280;18524;45.190;5.732;2022-12-11T01:08:29;98431.72;;;2.85;81.90
15670;BME280;18524;45.190;5.732;2022-12-11T01:13:19;98418.50;;;2.75;82.25
15670;BME280;18524;45.190;5.732;2022-12-11T01:18:11;98432.84;;;2.80;82.24
15670;BME280;18524;45.190;5.732;2022-12-11T01:23:02;98441.25;;;2.70;82.74
15670;BME280;18524;45.190;5.732;2022-12-11T01:27:54;98443.13;;;2.68;83.57
15670;BME280;18524;45.190;5.732;2022-12-11T01:32:46;98454.56;;;2.64;82.61
15670;BME280;18524;45.190;5.732;2022-12-11T01:37:37;98450.84;;;2.54;83.96
15670;BME280;18524;45.190;5.732;2022-12-11T01:42:27;98438.91;;;2.51;84.27
15670;BME280;18524;45.190;5.732;2022-12-11T01:47:18;98451.81;;;2.67;83.69
15670;BME280;18524;45.190;5.732;2022-12-11T01:52:20;98465.16;;;2.59;84.03
15670;BME280;18524;45.190;5.732;2022-12-11T01:57:12;98473.22;;;2.55;84.23
15670;BME280;18524;45.190;5.732;2022-12-11T02:02:07;98471.34;;;2.57;83.59
15670;BME280;18524;45.190;5.732;2022-12-11T02:06:59;98477.97;;;2.62;83.36
15670;BME280;18524;45.190;5.732;2022-12-11T02:12:00;98473.44;;;2.66;83.56
15670;BME280;18524;45.190;5.732;2022-12-11T02:17:00;98483.75;;;2.51;84.10
15670;BME280;18524;45.190;5.732;2022-12-11T02:21:55;98488.66;;;2.56;83.45
15670;BME280;18524;45.190;5.732;2022-12-11T02:32:23;98485.13;;;2.57;84.50
15670;BME280;18524;45.190;5.732;2022-12-11T02:37:21;98476.72;;;2.54;83.50
15670;BME280;18524;45.190;5.732;2022-12-11T02:42:13;98485.28;;;2.40;83.72
15670;BME280;18524;45.190;5.732;2022-12-11T02:47:08;98504.97;;;2.42;83.51
15670;BME280;18524;45.190;5.732;2022-12-11T02:52:02;98494.34;;;2.33;83.76
15670;BME280;18524;45.190;5.732;2022-12-11T02:57:06;98483.81;;;2.36;84.04
15670;BME280;18524;45.190;5.732;2022-12-11T03:01:57;98484.72;;;2.35;84.11
15670;BME280;18524;45.190;5.732;2022-12-11T03:06:51;98483.75;;;2.22;84.08
15670;BME280;18524;45.190;5.732;2022-12-11T03:11:42;98466.53;;;2.06;85.11
15670;BME280;18524;45.190;5.732;2022-12-11T03:21:44;98464.47;;;1.97;85.97
15670;BME280;18524;45.190;5.732;2022-12-11T03:26:42;98462.38;;;2.04;85.10
15670;BME280;18524;45.190;5.732;2022-12-11T03:31:43;98457.94;;;2.06;84.75
15670;BME280;18524;45.190;5.732;2022-12-11T03:36:36;98464.88;;;2.05;85.23
15670;BME280;18524;45.190;5.732;2022-12-11T03:41:30;98469.97;;;2.21;84.65
15670;BME280;18524;45.190;5.732;2022-12-11T03:46:25;98462.09;;;2.08;84.95
15670;BME280;18524;45.190;5.732;2022-12-11T03:51:17;98458.78;;;2.06;84.56
15670;BME280;18524;45.190;5.732;2022-12-11T03:56:09;98459.16;;;2.14;84.84
15670;BME280;18524;45.190;5.732;2022-12-11T04:01:01;98458.31;;;2.30;84.03
15670;BME280;18524;45.190;5.732;2022-12-11T04:05:54;98442.03;;;2.28;83.85
15670;BME280;18524;45.190;5.732;2022-12-11T04:10:45;98432.03;;;2.22;85.36
15670;BME280;18524;45.190;5.732;2022-12-11T04:15:37;98447.34;;;2.10;84.39
15670;BME280;18524;45.190;5.732;2022-12-11T04:20:28;98444.38;;;2.02;84.80
15670;BME280;18524;45.190;5.732;2022-12-11T04:25:37;98438.84;;;2.08;84.95
15670;BME280;18524;45.190;5.732;2022-12-11T04:30:27;98438.25;;;2.03;84.81
15670;BME280;18524;45.190;5.732;2022-12-11T04:35:18;98440.28;;;1.98;85.07
15670;BME280;18524;45.190;5.732;2022-12-11T04:40:11;98433.25;;;1.86;86.26
15670;BME280;18524;45.190;5.732;2022-12-11T04:45:03;98437.50;;;1.87;86.06
15670;BME280;18524;45.190;5.732;2022-12-11T04:49:53;98431.41;;;1.88;86.22
15670;BME280;18524;45.190;5.732;2022-12-11T04:54:44;98430.59;;;2.02;86.26
15670;BME280;18524;45.190;5.732;2022-12-11T04:59:34;98422.00;;;2.01;86.38
15670;BME280;18524;45.190;5.732;2022-12-11T05:04:25;98429.56;;;1.90;85.70
15670;BME280;18524;45.190;5.732;2022-12-11T05:09:17;98413.38;;;1.86;86.39
15670;BME280;18524;45.190;5.732;2022-12-11T05:14:07;98416.84;;;2.01;85.45
15670;BME280;18524;45.190;5.732;2022-12-11T05:18:58;98422.28;;;1.97;85.47
15670;BME280;18524;45.190;5.732;2022-12-11T05:23:48;98429.69;;;2.03;84.86
15670;BME280;18524;45.190;5.732;2022-12-11T05:28:39;98428.09;;;2.00;85.43
15670;BME280;18524;45.190;5.732;2022-12-11T05:33:30;98424.03;;;1.96;86.07
15670;BME280;18524;45.190;5.732;2022-12-11T05:38:21;98426.06;;;1.91;85.66
15670;BME280;18524;45.190;5.732;2022-12-11T05:43:11;98435.22;;;1.81;85.87
15670;BME280;18524;45.190;5.732;2022-12-11T05:48:02;98430.06;;;1.81;86.21
15670;BME280;18524;45.190;5.732;2022-12-11T05:52:52;98416.03;;;1.85;85.92
15670;BME280;18524;45.190;5.732;2022-12-11T05:57:43;98428.72;;;1.90;84.10
15670;BME280;18524;45.190;5.732;2022-12-11T06:02:34;98436.38;;;1.91;85.08
15670;BME280;18524;45.190;5.732;2022-12-11T06:07:25;98440.19;;;2.00;83.90
15670;BME280;18524;45.190;5.732;2022-12-11T06:12:15;98425.41;;;1.87;84.12
15670;BME280;18524;45.190;5.732;2022-12-11T06:17:05;98432.88;;;1.92;83.74
15670;BME280;18524;45.190;5.732;2022-12-11T06:21:56;98405.75;;;1.99;84.00
15670;BME280;18524;45.190;5.732;2022-12-11T06:26:46;98438.22;;;1.89;84.59
15670;BME280;18524;45.190;5.732;2022-12-11T06:31:37;98436.44;;;2.05;83.84
15670;BME280;18524;45.190;5.732;2022-12-11T06:36:27;98414.81;;;2.06;83.68
15670;BME280;18524;45.190;5.732;2022-12-11T06:41:18;98420.94;;;2.19;84.66
15670;BME280;18524;45.190;5.732;2022-12-11T06:46:14;98428.31;;;2.11;83.14
15670;BME280;18524;45.190;5.732;2022-12-11T06:51:06;98443.66;;;2.14;83.91
15670;BME280;18524;45.190;5.732;2022-12-11T06:56:04;98441.38;;;2.24;84.25
15670;BME280;18524;45.190;5.732;2022-12-11T07:00:55;98433.19;;;2.32;82.93
15670;BME280;18524;45.190;5.732;2022-12-11T07:05:46;98431.88;;;2.25;82.93
15670;BME280;18524;45.190;5.732;2022-12-11T07:10:36;98426.69;;;2.25;82.64
15670;BME280;18524;45.190;5.732;2022-12-11T07:15:26;98427.25;;;2.30;82.79
15670;BME280;18524;45.190;5.732;2022-12-11T07:20:17;98436.59;;;2.46;82.57
15670;BME280;18524;45.190;5.732;2022-12-11T07:25:08;98428.00;;;2.46;82.13
15670;BME280;18524;45.190;5.732;2022-12-11T07:29:58;98435.69;;;2.47;82.09
15670;BME280;18524;45.190;5.732;2022-12-11T07:34:48;98434.56;;;2.51;81.05
15670;BME280;18524;45.190;5.732;2022-12-11T07:39:39;98450.66;;;2.57;80.35
15670;BME280;18524;45.190;5.732;2022-12-11T07:44:29;98465.13;;;2.61;80.54
15670;BME280;18524;45.190;5.732;2022-12-11T07:49:19;98447.06;;;2.59;80.70
15670;BME280;18524;45.190;5.732;2022-12-11T07:54:12;98449.31;;;2.65;81.43
15670;BME280;18524;45.190;5.732;2022-12-11T07:59:05;98464.94;;;2.78;79.21
15670;BME280;18524;45.190;5.732;2022-12-11T08:03:56;98460.84;;;2.88;80.43
15670;BME280;18524;45.190;5.732;2022-12-11T08:08:46;98466.97;;;3.01;77.80
15670;BME280;18524;45.190;5.732;2022-12-11T08:13:37;98474.44;;;3.20;77.89
15670;BME280;18524;45.190;5.732;2022-12-11T08:18:27;98485.19;;;3.14;77.97
15670;BME280;18524;45.190;5.732;2022-12-11T08:23:19;98495.00;;;3.37;77.33
15670;BME280;18524;45.190;5.732;2022-12-11T08:28:09;98489.88;;;3.50;76.53
15670;BME280;18524;45.190;5.732;2022-12-11T08:33:00;98479.31;;;3.53;75.22
15670;BME280;18524;45.190;5.732;2022-12-11T08:37:50;98481.19;;;3.37;76.31
15670;BME280;18524;45.190;5.732;2022-12-11T08:42:41;98475.44;;;3.32;76.11
15670;BME280;18524;45.190;5.732;2022-12-11T08:47:31;98484.97;;;3.31;76.63
15670;BME280;18524;45.190;5.732;2022-12-11T08:52:22;98497.28;;;3.28;76.68
15670;BME280;18524;45.190;5.732;2022-12-11T08:57:12;98482.56;;;3.28;76.92
15670;BME280;18524;45.190;5.732;2022-12-11T09:02:03;98493.03;;;3.41;76.15
15670;BME280;18524;45.190;5.732;2022-12-11T09:06:53;98493.38;;;3.49;74.79
15670;BME280;18524;45.190;5.732;2022-12-11T09:11:44;98487.63;;;3.58;74.76
15670;BME280;18524;45.190;5.732;2022-12-11T09:16:37;98494.59;;;3.43;75.00
15670;BME280;18524;45.190;5.732;2022-12-11T09:21:29;98492.97;;;3.69;74.37
15670;BME280;18524;45.190;5.732;2022-12-11T09:26:20;98489.41;;;3.43;74.25
15670;BME280;18524;45.190;5.732;2022-12-11T09:31:20;98473.81;;;3.58;73.86
15670;BME280;18524;45.190;5.732;2022-12-11T09:36:12;98477.59;;;3.66;73.52
15670;BME280;18524;45.190;5.732;2022-12-11T09:46:31;98477.38;;;4.11;73.88
15670;BME280;18524;45.190;5.732;2022-12-11T09:51:32;98470.34;;;3.98;73.35
15670;BME280;18524;45.190;5.732;2022-12-11T10:01:43;98455.66;;;4.51;72.18
15670;BME280;18524;45.190;5.732;2022-12-11T10:06:55;98460.53;;;4.94;70.59
15670;BME280;18524;45.190;5.732;2022-12-11T10:17:18;98463.28;;;5.16;68.35
15670;BME280;18524;45.190;5.732;2022-12-11T10:22:28;98454.06;;;5.12;68.71
15670;BME280;18524;45.190;5.732;2022-12-11T10:27:22;98446.44;;;5.34;68.00
15670;BME280;18524;45.190;5.732;2022-12-11T10:32:24;98438.13;;;5.66;67.61
15670;BME280;18524;45.190;5.732;2022-12-11T10:37:16;98437.31;;;5.53;67.75
15670;BME280;18524;45.190;5.732;2022-12-11T10:42:16;98436.66;;;5.38;68.72
15670;BME280;18524;45.190;5.732;2022-12-11T10:47:13;98435.25;;;5.21;68.58
15670;BME280;18524;45.190;5.732;2022-12-11T10:52:32;98430.22;;;5.18;67.39
15670;BME280;18524;45.190;5.732;2022-12-11T10:57:34;98435.94;;;5.36;70.22
15670;BME280;18524;45.190;5.732;2022-12-11T11:02:38;98412.25;;;5.52;68.51
15670;BME280;18524;45.190;5.732;2022-12-11T11:07:30;98416.31;;;5.80;69.34
15670;BME280;18524;45.190;5.732;2022-12-11T11:12:24;98421.31;;;6.07;68.34
15670;BME280;18524;45.190;5.732;2022-12-11T11:17:16;98418.00;;;6.62;67.00
15670;BME280;18524;45.190;5.732;2022-12-11T11:22:17;98414.09;;;6.90;65.43
15670;BME280;18524;45.190;5.732;2022-12-11T11:27:34;98403.44;;;6.93;63.72
15670;BME280;18524;45.190;5.732;2022-12-11T11:32:43;98391.84;;;6.75;65.24
15670;BME280;18524;45.190;5.732;2022-12-11T11:37:34;98394.91;;;6.46;65.07
15670;BME280;18524;45.190;5.732;2022-12-11T11:42:55;98375.00;;;6.45;65.21
15670;BME280;18524;45.190;5.732;2022-12-11T11:53:19;98348.16;;;7.33;62.37
15670;BME280;18524;45.190;5.732;2022-12-11T11:58:16;98341.16;;;6.79;61.73
15670;BME280;18524;45.190;5.732;2022-12-11T12:08:16;98312.13;;;7.91;59.39
15670;BME280;18524;45.190;5.732;2022-12-11T12:13:28;98308.66;;;7.69;59.19
15670;BME280;18524;45.190;5.732;2022-12-11T12:18:31;98298.28;;;7.26;59.23
15670;BME280;18524;45.190;5.732;2022-12-11T12:24:07;98286.69;;;7.19;61.08
15670;BME280;18524;45.190;5.732;2022-12-11T12:29:13;98287.75;;;6.62;62.71
15670;BME280;18524;45.190;5.732;2022-12-11T12:39:25;98276.56;;;6.94;62.75
15670;BME280;18524;45.190;5.732;2022-12-11T12:44:22;98279.09;;;6.62;62.79
15670;BME280;18524;45.190;5.732;2022-12-11T12:49:17;98285.28;;;6.38;63.09
15670;BME280;18524;45.190;5.732;2022-12-11T12:54:12;98285.75;;;6.54;64.07
15670;BME280;18524;45.190;5.732;2022-12-11T12:59:18;98277.31;;;6.73;62.84
15670;BME280;18524;45.190;5.732;2022-12-11T13:04:27;98291.09;;;7.18;65.04
15670;BME280;18524;45.190;5.732;2022-12-11T13:09:21;98281.06;;;7.35;63.48
15670;BME280;18524;45.190;5.732;2022-12-11T13:29:31;98286.88;;;6.95;65.10
15670;BME280;18524;45.190;5.732;2022-12-11T13:34:22;98289.09;;;7.11;65.19
15670;BME280;18524;45.190;5.732;2022-12-11T13:39:17;98292.91;;;7.07;63.60
15670;BME280;18524;45.190;5.732;2022-12-11T13:44:17;98306.56;;;6.66;64.45
15670;BME280;18524;45.190;5.732;2022-12-11T13:49:39;98307.16;;;6.58;65.19
15670;BME280;18524;45.190;5.732;2022-12-11T13:54:30;98306.72;;;6.42;66.07
15670;BME280;18524;45.190;5.732;2022-12-11T13:59:40;98303.75;;;6.35;65.31
15670;BME280;18524;45.190;5.732;2022-12-11T14:04:32;98290.72;;;6.35;65.97
15670;BME280;18524;45.190;5.732;2022-12-11T14:09:25;98296.63;;;6.26;66.38
15670;BME280;18524;45.190;5.732;2022-12-11T14:14:22;98283.13;;;6.21;67.26
15670;BME280;18524;45.190;5.732;2022-12-11T14:19:16;98292.03;;;6.41;66.38
15670;BME280;18524;45.190;5.732;2022-12-11T14:24:12;98295.31;;;6.32;66.14
15670;BME280;18524;45.190;5.732;2022-12-11T14:29:04;98302.66;;;6.26;65.05
15670;BME280;18524;45.190;5.732;2022-12-11T14:34:06;98310.81;;;6.00;66.38
15670;BME280;18524;45.190;5.732;2022-12-11T14:39:09;98316.50;;;6.16;66.59
15670;BME280;18524;45.190;5.732;2022-12-11T14:44:03;98317.44;;;6.04;67.30
15670;BME280;18524;45.190;5.732;2022-12-11T14:49:00;98323.13;;;6.09;66.14
15670;BME280;18524;45.190;5.732;2022-12-11T14:53:52;98327.84;;;6.15;67.67
15670;BME280;18524;45.190;5.732;2022-12-11T14:58:54;98321.00;;;6.25;66.99
15670;BME280;18524;45.190;5.732;2022-12-11T15:03:46;98320.28;;;6.23;67.34
15670;BME280;18524;45.190;5.732;2022-12-11T15:08:37;98328.78;;;6.14;66.49
15670;BME280;18524;45.190;5.732;2022-12-11T15:13:27;98322.63;;;6.04;66.96
15670;BME280;18524;45.190;5.732;2022-12-11T15:18:21;98334.31;;;5.63;67.77
15670;BME280;18524;45.190;5.732;2022-12-11T15:23:13;98326.38;;;5.64;68.45
15670;BME280;18524;45.190;5.732;2022-12-11T15:28:04;98322.03;;;5.65;68.63
15670;BME280;18524;45.190;5.732;2022-12-11T15:33:17;98319.13;;;5.57;69.04
15670;BME280;18524;45.190;5.732;2022-12-11T15:43:17;98330.22;;;5.24;70.25
15670;BME280;18524;45.190;5.732;2022-12-11T15:48:09;98321.16;;;5.29;70.61
15670;BME280;18524;45.190;5.732;2022-12-11T15:53:00;98321.41;;;5.14;72.13
15670;BME280;18524;45.190;5.732;2022-12-11T15:57:54;98324.09;;;5.25;71.63
15670;BME280;18524;45.190;5.732;2022-12-11T16:02:45;98325.78;;;5.13;72.02
15670;BME280;18524;45.190;5.732;2022-12-11T16:07:36;98329.41;;;5.23;71.04
15670;BME280;18524;45.190;5.732;2022-12-11T16:12:27;98326.59;;;5.14;71.37
15670;BME280;18524;45.190;5.732;2022-12-11T16:17:17;98325.00;;;5.00;72.34
15670;BME280;18524;45.190;5.732;2022-12-11T16:22:09;98335.06;;;5.05;72.71
15670;BME280;18524;45.190;5.732;2022-12-11T16:27:00;98337.72;;;4.92;73.19
15670;BME280;18524;45.190;5.732;2022-12-11T16:31:51;98329.41;;;4.87;73.12
15670;BME280;18524;45.190;5.732;2022-12-11T16:36:41;98317.16;;;4.76;73.55
15670;BME280;18524;45.190;5.732;2022-12-11T16:41:31;98315.44;;;4.64;74.55
15670;BME280;18524;45.190;5.732;2022-12-11T16:46:22;98317.63;;;4.57;74.73
15670;BME280;18524;45.190;5.732;2022-12-11T16:51:13;98315.03;;;4.57;74.75
15670;BME280;18524;45.190;5.732;2022-12-11T16:56:05;98320.13;;;4.59;74.58
15670;BME280;18524;45.190;5.732;2022-12-11T17:00:56;98324.66;;;4.68;74.55
15670;BME280;18524;45.190;5.732;2022-12-11T17:05:51;98327.59;;;4.63;73.49
15670;BME280;18524;45.190;5.732;2022-12-11T17:10:42;98324.28;;;4.49;74.52
15670;BME280;18524;45.190;5.732;2022-12-11T17:15:32;98324.28;;;4.36;75.68
15670;BME280;18524;45.190;5.732;2022-12-11T17:20:23;98327.81;;;4.22;75.84
15670;BME280;18524;45.190;5.732;2022-12-11T17:25:13;98329.50;;;4.11;77.32
15670;BME280;18524;45.190;5.732;2022-12-11T17:30:08;98338.53;;;4.18;78.10
15670;BME280;18524;45.190;5.732;2022-12-11T17:34:59;98338.00;;;4.13;77.87
15670;BME280;18524;45.190;5.732;2022-12-11T17:39:49;98338.81;;;4.00;77.68
15670;BME280;18524;45.190;5.732;2022-12-11T17:44:39;98345.06;;;4.11;77.68
15670;BME280;18524;45.190;5.732;2022-12-11T17:49:30;98352.50;;;4.02;78.44
15670;BME280;18524;45.190;5.732;2022-12-11T17:54:22;98343.47;;;3.95;77.91
15670;BME280;18524;45.190;5.732;2022-12-11T17:59:12;98343.88;;;3.89;78.25
15670;BME280;18524;45.190;5.732;2022-12-11T18:04:03;98356.44;;;3.95;78.13
15670;BME280;18524;45.190;5.732;2022-12-11T18:08:54;98352.50;;;4.02;79.04
15670;BME280;18524;45.190;5.732;2022-12-11T18:13:44;98354.97;;;3.91;79.19
15670;BME280;18524;45.190;5.732;2022-12-11T18:18:35;98359.34;;;4.03;79.19
15670;BME280;18524;45.190;5.732;2022-12-11T18:23:25;98365.97;;;3.95;78.02
15670;BME280;18524;45.190;5.732;2022-12-11T18:28:16;98364.41;;;3.92;79.33
15670;BME280;18524;45.190;5.732;2022-12-11T18:33:06;98365.56;;;3.88;78.91
15670;BME280;18524;45.190;5.732;2022-12-11T18:37:57;98374.59;;;4.08;80.11
15670;BME280;18524;45.190;5.732;2022-12-11T18:42:47;98362.03;;;3.89;78.56
15670;BME280;18524;45.190;5.732;2022-12-11T18:47:37;98365.88;;;3.96;79.39
15670;BME280;18524;45.190;5.732;2022-12-11T18:52:28;98371.28;;;4.06;79.19
15670;BME280;18524;45.190;5.732;2022-12-11T18:57:18;98370.75;;;4.01;79.15
15670;BME280;18524;45.190;5.732;2022-12-11T19:02:10;98373.47;;;3.99;78.55
15670;BME280;18524;45.190;5.732;2022-12-11T19:07:02;98357.16;;;3.85;78.32
15670;BME280;18524;45.190;5.732;2022-12-11T19:11:53;98364.09;;;3.84;78.41
15670;BME280;18524;45.190;5.732;2022-12-11T19:16:43;98366.09;;;3.54;79.09
15670;BME280;18524;45.190;5.732;2022-12-11T19:21:37;98375.47;;;3.69;80.64
15670;BME280;18524;45.190;5.732;2022-12-11T19:26:28;98366.16;;;3.79;81.02
15670;BME280;18524;45.190;5.732;2022-12-11T19:31:22;98376.00;;;3.74;79.52
15670;BME280;18524;45.190;5.732;2022-12-11T19:36:16;98366.50;;;3.87;80.06
15670;BME280;18524;45.190;5.732;2022-12-11T19:41:12;98385.44;;;3.75;79.31
15670;BME280;18524;45.190;5.732;2022-12-11T19:46:07;98384.88;;;3.97;78.53
15670;BME280;18524;45.190;5.732;2022-12-11T19:51:05;98398.53;;;3.73;77.12
15670;BME280;18524;45.190;5.732;2022-12-11T19:55:56;98391.84;;;3.69;78.80
15670;BME280;18524;45.190;5.732;2022-12-11T20:00:46;98398.63;;;3.72;77.31
15670;BME280;18524;45.190;5.732;2022-12-11T20:05:38;98410.38;;;3.63;78.51
15670;BME280;18524;45.190;5.732;2022-12-11T20:10:28;98402.66;;;3.76;79.84
15670;BME280;18524;45.190;5.732;2022-12-11T20:15:19;98395.13;;;3.59;78.07
15670;BME280;18524;45.190;5.732;2022-12-11T20:20:10;98404.66;;;3.58;78.15
15670;BME280;18524;45.190;5.732;2022-12-11T20:25:00;98392.56;;;3.71;79.43
15670;BME280;18524;45.190;5.732;2022-12-11T20:29:51;98394.06;;;3.75;78.14
15670;BME280;18524;45.190;5.732;2022-12-11T20:34:41;98387.25;;;3.87;76.18
15670;BME280;18524;45.190;5.732;2022-12-11T20:39:32;98405.84;;;3.67;75.76
15670;BME280;18524;45.190;5.732;2022-12-11T20:44:22;98407.44;;;3.28;76.71
15670;BME280;18524;45.190;5.732;2022-12-11T20:49:12;98393.34;;;3.32;76.96
15670;BME280;18524;45.190;5.732;2022-12-11T20:54:03;98395.19;;;3.44;76.60
15670;BME280;18524;45.190;5.732;2022-12-11T20:58:54;98396.41;;;3.66;77.06
15670;BME280;18524;45.190;5.732;2022-12-11T21:03:45;98395.63;;;3.78;75.77
15670;BME280;18524;45.190;5.732;2022-12-11T21:08:36;98397.09;;;3.82;75.92
15670;BME280;18524;45.190;5.732;2022-12-11T21:13:26;98381.31;;;3.85;73.54
15670;BME280;18524;45.190;5.732;2022-12-11T21:18:17;98382.16;;;3.86;75.83
15670;BME280;18524;45.190;5.732;2022-12-11T21:23:08;98377.59;;;3.89;74.39
15670;BME280;18524;45.190;5.732;2022-12-11T21:28:00;98377.13;;;3.70;74.88
15670;BME280;18524;45.190;5.732;2022-12-11T21:32:50;98380.94;;;3.64;76.88
15670;BME280;18524;45.190;5.732;2022-12-11T21:37:41;98394.06;;;3.49;74.59
15670;BME280;18524;45.190;5.732;2022-12-11T21:42:31;98390.03;;;3.30;77.09
15670;BME280;18524;45.190;5.732;2022-12-11T21:47:21;98397.22;;;3.12;76.68
15670;BME280;18524;45.190;5.732;2022-12-11T21:52:12;98406.59;;;3.01;77.99
15670;BME280;18524;45.190;5.732;2022-12-11T21:57:02;98415.09;;;3.03;79.28
15670;BME280;18524;45.190;5.732;2022-12-11T22:01:53;98414.16;;;3.04;78.52
15670;BME280;18524;45.190;5.732;2022-12-11T22:06:44;98416.84;;;3.02;78.69
15670;BME280;18524;45.190;5.732;2022-12-11T22:11:36;98413.78;;;3.10;79.52
15670;BME280;18524;45.190;5.732;2022-12-11T22:16:26;98410.19;;;2.98;79.29
15670;BME280;18524;45.190;5.732;2022-12-11T22:21:18;98415.63;;;2.94;79.29
15670;BME280;18524;45.190;5.732;2022-12-11T22:26:13;98420.81;;;2.94;80.69
15670;BME280;18524;45.190;5.732;2022-12-11T22:31:09;98425.53;;;3.01;78.78
15670;BME280;18524;45.190;5.732;2022-12-11T22:36:00;98434.03;;;3.03;80.11
15670;BME280;18524;45.190;5.732;2022-12-11T22:40:51;98440.06;;;3.04;80.01
15670;BME280;18524;45.190;5.732;2022-12-11T22:45:42;98444.13;;;2.94;78.08
15670;BME280;18524;45.190;5.732;2022-12-11T22:50:33;98447.91;;;2.74;79.01
15670;BME280;18524;45.190;5.732;2022-12-11T22:55:24;98454.94;;;2.86;79.18
15670;BME280;18524;45.190;5.732;2022-12-11T23:00:15;98442.53;;;2.91;79.38
15670;BME280;18524;45.190;5.732;2022-12-11T23:05:06;98443.75;;;2.86;79.51
15670;BME280;18524;45.190;5.732;2022-12-11T23:09:56;98451.53;;;2.71;80.60
15670;BME280;18524;45.190;5.732;2022-12-11T23:14:48;98462.06;;;2.68;79.08
15670;BME280;18524;45.190;5.732;2022-12-11T23:19:38;98458.09;;;2.63;80.89
15670;BME280;18524;45.190;5.732;2022-12-11T23:24:29;98463.16;;;2.64;79.33
15670;BME280;18524;45.190;5.732;2022-12-11T23:29:19;98464.09;;;2.63;81.70
15670;BME280;18524;45.190;5.732;2022-12-11T23:34:10;98459.56;;;2.67;81.61
15670;BME280;18524;45.190;5.732;2022-12-11T23:39:00;98462.34;;;2.64;81.18
15670;BME280;18524;45.190;5.732;2022-12-11T23:43:50;98461.75;;;2.59;79.57
15670;BME280;18524;45.190;5.732;2022-12-11T23:48:41;98448.28;;;2.68;81.43
15670;BME280;18524;45.190;5.732;2022-12-11T23:53:32;98444.31;;;2.62;81.60
15670;BME280;18524;45.190;5.732;2022-12-11T23:58:22;98456.38;;;2.47;81.56
